Time;durP1;ratioP1;P1;durP2;ratioP2;P2;SDS_P1;SDS_P2;PMS_P1;PMS_P2;Temp;Humidity;BMP_temperature;BMP_pressure;BME280_temperature;BME280_humidity;BME280_pressure;Samples;Min_cycle;Max_cycle;Signal;HPM_P1;HPM_P2
2022/04/26 03:37:38;;;;;;;;;;;5.90;99.90;;;;;;5245703;28;20039;-76
2022/04/26 03:40:11;;;;;;;0.57;0.57;;;5.90;99.90;;;;;;5246080;28;19911;-76
2022/04/26 03:42:42;;;;;;;1.05;1.05;;;5.90;99.90;;;;;;5247711;28;20310;-77
2022/04/26 03:45:13;;;;;;;0.82;0.82;;;6.00;99.90;;;;;;5247027;28;20017;-77
2022/04/26 03:47:47;;;;;;;0.90;0.90;;;6.00;99.90;;;;;;5228884;28;20024;-78
2022/04/26 03:50:21;;;;;;;0.60;0.60;;;6.00;99.90;;;;;;5246898;28;20342;-76
2022/04/26 03:52:53;;;;;;;0.30;0.30;;;6.10;99.90;;;;;;5233077;28;20012;-78
2022/04/26 03:55:24;;;;;;;0.43;0.43;;;6.20;99.90;;;;;;5246167;28;20036;-78
2022/04/26 03:57:57;;;;;;;1.25;1.25;;;6.20;99.90;;;;;;5236107;28;20028;-78
2022/04/26 04:00:28;;;;;;;0.70;0.70;;;6.30;99.90;;;;;;5228147;28;20306;-78
2022/04/26 04:03:00;;;;;;;0.40;0.40;;;6.30;99.90;;;;;;5246089;28;20040;-79
2022/04/26 04:05:32;;;;;;;0.47;0.47;;;6.40;99.90;;;;;;5211348;28;20052;-78
2022/04/26 04:08:04;;;;;;;0.95;0.95;;;6.60;99.90;;;;;;5239525;28;20036;-78
2022/04/26 04:10:37;;;;;;;0.50;0.50;;;6.70;99.90;;;;;;5223962;28;20033;-78
2022/04/26 04:13:14;;;;;;;1.10;1.05;;;6.70;99.90;;;;;;5228185;28;20021;-77
2022/04/26 04:15:46;;;;;;;0.95;0.95;;;6.70;99.90;;;;;;5235473;28;20035;-78
2022/04/26 04:21:07;;;;;;;0.70;0.70;;;6.80;99.90;;;;;;5263809;28;20036;-78
2022/04/26 04:23:41;;;;;;;0.75;0.75;;;6.90;99.90;;;;;;5256240;28;20028;-77
2022/04/26 04:26:12;;;;;;;1.05;1.05;;;6.90;99.90;;;;;;5244852;28;20028;-78
2022/04/26 04:28:46;;;;;;;0.85;0.85;;;6.90;99.90;;;;;;5245218;28;20021;-77
2022/04/26 04:31:18;;;;;;;1.48;1.48;;;7.00;99.90;;;;;;5244692;28;20040;-78
2022/04/26 04:33:52;;;;;;;1.35;1.35;;;7.10;99.90;;;;;;5243224;28;20100;-77
2022/04/26 04:36:27;;;;;;;0.47;0.47;;;7.10;99.90;;;;;;5226098;28;20028;-77
2022/04/26 04:39:01;;;;;;;1.38;1.02;;;7.30;99.90;;;;;;5245260;28;20366;-77
2022/04/26 04:41:37;;;;;;;0.77;0.77;;;7.50;99.90;;;;;;5207806;28;20039;-78
2022/04/26 04:44:08;;;;;;;0.70;0.70;;;7.70;99.90;;;;;;5225370;28;20031;-78
2022/04/26 04:46:40;;;;;;;1.08;1.08;;;7.90;99.90;;;;;;5214513;28;20024;-77
2022/04/26 04:49:11;;;;;;;4.85;1.25;;;8.10;99.90;;;;;;5244922;28;20022;-77
2022/04/26 04:51:45;;;;;;;0.80;0.80;;;8.30;99.90;;;;;;5243344;28;20044;-77
2022/04/26 04:54:17;;;;;;;0.50;0.50;;;8.40;99.90;;;;;;5244634;28;20039;-78
2022/04/26 04:56:49;;;;;;;0.57;0.57;;;8.50;99.90;;;;;;5243452;28;20040;-78
2022/04/26 04:59:20;;;;;;;0.88;0.88;;;8.70;99.90;;;;;;5243969;28;20029;-78
2022/04/26 05:01:53;;;;;;;0.47;0.47;;;8.80;99.90;;;;;;5244411;28;20039;-78
2022/04/26 05:04:24;;;;;;;1.25;1.20;;;9.00;99.90;;;;;;5217610;28;20030;-77
2022/04/26 05:06:56;;;;;;;1.60;1.50;;;9.00;99.90;;;;;;5246464;28;20167;-77
2022/04/26 05:09:27;;;;;;;0.63;0.55;;;9.10;99.90;;;;;;5249380;28;20032;-78
2022/04/26 05:12:04;;;;;;;0.93;0.93;;;9.20;99.90;;;;;;5249573;28;20023;-79
2022/04/26 05:14:35;;;;;;;0.93;0.93;;;9.30;99.90;;;;;;5249193;28;20020;-78
2022/04/26 05:17:11;;;;;;;1.33;1.33;;;9.40;99.90;;;;;;5218031;28;20048;-78
2022/04/26 05:19:43;;;;;;;1.83;1.73;;;9.70;99.90;;;;;;5251659;28;20031;-78
2022/04/26 05:22:15;;;;;;;1.02;1.02;;;10.00;99.90;;;;;;5251716;28;20017;-78
2022/04/26 05:24:56;;;;;;;1.05;1.02;;;10.30;99.90;;;;;;5233123;28;20039;-76
2022/04/26 05:27:30;;;;;;;1.02;1.02;;;10.60;99.90;;;;;;5244959;28;20411;-78
2022/04/26 05:30:01;;;;;;;1.52;1.50;;;10.70;99.90;;;;;;5267780;28;20032;-78
2022/04/26 05:32:33;;;;;;;1.25;1.25;;;10.30;99.90;;;;;;5270085;28;20028;-79
2022/04/26 05:35:06;;;;;;;1.77;1.75;;;10.20;99.90;;;;;;5259557;28;20022;-78
2022/04/26 05:37:37;;;;;;;5.47;1.10;;;10.20;99.90;;;;;;5246898;28;20047;-77
2022/04/26 05:40:11;;;;;;;0.80;0.80;;;10.20;99.90;;;;;;5247289;28;20543;-77
2022/04/26 05:42:45;;;;;;;0.85;0.85;;;10.30;99.90;;;;;;5247044;28;20028;-76
2022/04/26 05:45:17;;;;;;;1.10;1.10;;;10.40;99.90;;;;;;5247453;28;20034;-78
2022/04/26 05:47:48;;;;;;;0.57;0.57;;;10.20;99.90;;;;;;5224377;28;20039;-78
2022/04/26 05:50:22;;;;;;;2.70;1.90;;;10.10;99.90;;;;;;5239695;28;20033;-81
2022/04/26 05:52:53;;;;;;;1.67;1.58;;;10.20;99.90;;;;;;5248533;28;20027;-78
2022/04/26 05:55:30;;;;;;;1.15;1.15;;;10.10;99.90;;;;;;5247582;28;20334;-78
2022/04/26 05:58:02;;;;;;;1.30;1.30;;;10.10;99.90;;;;;;5252192;28;20030;-77
2022/04/26 06:00:33;;;;;;;1.30;1.30;;;9.90;99.90;;;;;;5231844;28;20044;-75
2022/04/26 06:03:07;;;;;;;1.15;1.15;;;10.10;99.90;;;;;;5247633;28;20025;-79
2022/04/26 06:05:41;;;;;;;1.05;1.05;;;10.40;99.90;;;;;;5219556;28;20056;-78
2022/04/26 06:08:15;;;;;;;;;;;10.40;99.90;;;;;;5244495;28;20028;-77
2022/04/26 06:10:47;;;;;;;0.75;0.75;;;10.30;99.90;;;;;;5230955;28;20335;-77
2022/04/26 06:13:18;;;;;;;1.75;1.65;;;10.60;99.90;;;;;;5247064;28;20035;-77
2022/04/26 06:15:55;;;;;;;0.80;0.80;;;10.70;99.90;;;;;;5243932;28;20545;-76
2022/04/26 06:18:26;;;;;;;1.20;1.20;;;10.70;99.90;;;;;;5213289;28;20031;-78
2022/04/26 06:20:58;;;;;;;1.15;1.15;;;10.70;99.90;;;;;;5226967;28;20025;-78
2022/04/26 06:23:32;;;;;;;1.35;1.35;;;10.70;99.90;;;;;;5232592;28;20046;-77
2022/04/26 06:26:05;;;;;;;0.85;0.85;;;10.60;99.90;;;;;;5246339;28;20030;-77
2022/04/26 06:28:39;;;;;;;1.65;1.60;;;10.80;99.90;;;;;;5229191;28;20035;-77
2022/04/26 06:31:13;;;;;;;1.15;1.15;;;11.00;99.90;;;;;;5245951;28;20403;-78
2022/04/26 06:33:44;;;;;;;0.68;0.68;;;11.10;99.90;;;;;;5232454;28;20087;-80
2022/04/26 06:36:15;;;;;;;0.70;0.70;;;11.20;99.90;;;;;;5237524;28;20051;-79
2022/04/26 06:38:49;;;;;;;0.98;0.98;;;11.30;99.90;;;;;;5245907;28;20027;-77
2022/04/26 06:41:20;;;;;;;1.23;1.13;;;11.50;99.90;;;;;;5231716;28;20400;-78
2022/04/26 06:43:52;;;;;;;2.05;1.95;;;11.50;99.90;;;;;;5246008;28;20025;-78
2022/04/26 06:46:26;;;;;;;2.47;2.33;;;11.50;99.90;;;;;;5246283;28;20025;-80
2022/04/26 06:49:00;;;;;;;1.20;1.20;;;11.60;99.90;;;;;;5230716;28;20535;-77
2022/04/26 06:51:44;;;;;;;0.93;0.93;;;11.30;99.90;;;;;;5245449;28;20521;-74
2022/04/26 06:54:18;;;;;;;1.10;1.10;;;11.10;99.90;;;;;;5245785;28;20513;-76
2022/04/26 06:56:49;;;;;;;1.10;1.10;;;11.40;99.90;;;;;;5245011;28;20043;-76
2022/04/26 06:59:21;;;;;;;1.20;1.20;;;11.60;99.90;;;;;;5228904;28;20025;-78
2022/04/26 07:01:57;;;;;;;1.08;1.08;;;11.50;99.90;;;;;;5246392;28;20362;-77
2022/04/26 07:04:31;;;;;;;0.90;0.90;;;11.40;99.90;;;;;;5245923;28;20058;-78
2022/04/26 07:07:02;;;;;;;1.05;1.05;;;11.70;99.90;;;;;;5258138;28;20040;-76
2022/04/26 07:09:37;;;;;;;2.05;1.95;;;12.00;99.90;;;;;;5254643;28;20044;-77
2022/04/26 07:12:08;;;;;;;1.25;1.25;;;12.10;99.90;;;;;;5254837;28;20035;-78
2022/04/26 07:14:42;;;;;;;0.80;0.80;;;11.90;99.90;;;;;;5252787;28;20033;-77
2022/04/26 07:17:19;;;;;;;1.65;1.55;;;11.60;99.90;;;;;;5255535;28;20054;-76
2022/04/26 07:19:51;;;;;;;1.23;1.23;;;11.70;99.90;;;;;;5247133;28;20032;-78
2022/04/26 07:22:25;;;;;;;1.23;1.23;;;11.80;99.90;;;;;;5245342;28;20028;-77
2022/04/26 07:24:58;;;;;;;1.35;1.35;;;11.70;99.90;;;;;;5246125;28;20036;-78
2022/04/26 07:27:32;;;;;;;1.52;1.52;;;11.40;99.90;;;;;;5228871;28;20020;-78
2022/04/26 07:30:04;;;;;;;1.58;1.58;;;11.40;99.90;;;;;;5229205;28;20026;-78
2022/04/26 07:35:25;;;;;;;0.90;0.90;;;11.00;99.90;;;;;;5241346;28;20039;-78
2022/04/26 07:38:10;;;;;;;0.85;0.85;;;11.30;99.90;;;;;;5240414;28;20209;-76
2022/04/26 07:40:46;;;;;;;;;;;11.00;99.90;;;;;;5224180;28;20223;-75
2022/04/26 07:43:17;;;;;;;0.73;0.73;;;10.80;99.90;;;;;;5242914;28;19909;-77
2022/04/26 07:45:49;;;;;;;0.65;0.65;;;10.90;99.90;;;;;;5241411;28;20036;-75
2022/04/26 07:48:22;;;;;;;1.15;1.15;;;11.10;99.90;;;;;;5242252;28;20035;-76
2022/04/26 07:50:56;;;;;;;1.00;1.00;;;11.50;99.90;;;;;;5240330;28;20032;-77
2022/04/26 07:53:29;;;;;;;0.88;0.88;;;11.70;99.90;;;;;;5241741;28;20267;-75
2022/04/26 07:56:01;;;;;;;1.15;1.15;;;12.00;99.90;;;;;;5241139;28;20040;-75
2022/04/26 07:58:35;;;;;;;0.80;0.80;;;11.70;99.90;;;;;;5239192;28;20042;-76
2022/04/26 08:01:14;;;;;;;1.67;1.57;;;11.60;99.90;;;;;;5239802;28;20032;-76
2022/04/26 08:03:45;;;;;;;1.40;1.40;;;11.90;99.90;;;;;;5239804;28;20036;-75
2022/04/26 08:06:20;;;;;;;0.70;0.70;;;12.20;99.90;;;;;;5230136;28;20056;-76
2022/04/26 08:08:53;;;;;;;1.33;1.33;;;12.40;99.90;;;;;;5209159;28;20039;-77
2022/04/26 08:11:28;;;;;;;1.43;1.40;;;12.70;99.90;;;;;;5213855;28;20339;-78
2022/04/26 08:14:00;;;;;;;1.48;1.45;;;12.70;99.90;;;;;;5222508;28;20298;-77
2022/04/26 08:16:31;;;;;;;1.92;1.83;;;12.90;99.90;;;;;;5223641;28;20044;-76
2022/04/26 08:19:02;;;;;;;1.63;1.55;;;13.00;99.90;;;;;;5218242;28;20032;-78
2022/04/26 08:21:34;;;;;;;1.30;1.30;;;13.00;99.90;;;;;;5235024;28;20028;-77
2022/04/26 08:27:25;;;;;;;0.70;0.70;;;12.70;99.90;;;;;;5218780;28;20032;-77
2022/04/26 08:30:00;;;;;;;0.90;0.90;;;12.60;99.90;;;;;;5197977;28;20040;-80
2022/04/26 08:32:39;;;;;;;3.50;2.03;;;12.60;99.90;;;;;;5199634;28;20036;-74
2022/04/26 08:35:13;;;;;;;1.15;1.13;;;12.70;99.90;;;;;;5218381;28;20036;-76
2022/04/26 08:37:44;;;;;;;2.00;1.83;;;12.70;99.90;;;;;;5202418;28;20039;-76
2022/04/26 08:40:16;;;;;;;1.30;1.30;;;12.80;99.90;;;;;;5240402;28;20032;-76
2022/04/26 08:42:51;;;;;;;1.55;1.55;;;12.80;99.90;;;;;;5244076;28;20353;-77
2022/04/26 08:45:23;;;;;;;1.02;1.02;;;12.90;99.90;;;;;;5244047;28;20059;-77
2022/04/26 08:53:35;;;;;;;2.38;2.25;;;12.30;99.90;;;;;;5245365;28;20025;-76
2022/04/26 08:56:08;;;;;;;9.73;1.80;;;12.20;99.90;;;;;;5246379;28;20045;-75
2022/04/26 08:58:41;;;;;;;0.95;0.95;;;12.10;99.90;;;;;;5247657;28;20040;-77
2022/04/26 09:01:18;;;;;;;1.02;1.02;;;12.00;99.90;;;;;;5229138;28;20058;-76
2022/04/26 09:03:59;;;;;;;1.67;1.67;;;12.20;99.90;;;;;;5246660;28;20341;-76
2022/04/26 09:06:30;;;;;;;1.30;1.30;;;12.40;99.90;;;;;;5229429;28;20142;-77
2022/04/26 09:09:18;;;;;;;1.70;1.60;;;12.40;99.90;;;;;;5254735;28;20028;-76
2022/04/26 09:11:50;;;;;;;0.95;0.95;;;12.70;99.90;;;;;;5232423;28;20037;-76
2022/04/26 09:14:34;;;;;;;1.10;1.10;;;12.80;99.90;;;;;;5224115;28;20047;-76
2022/04/26 09:17:09;;;;;;;1.23;1.23;;;12.70;99.90;;;;;;5213539;28;20045;-76
2022/04/26 09:19:47;;;;;;;2.22;2.13;;;12.80;99.90;;;;;;5227018;28;20039;-76
2022/04/26 09:22:20;;;;;;;1.30;1.30;;;12.70;99.90;;;;;;5241291;28;20047;-76
2022/04/26 09:24:59;;;;;;;1.63;1.63;;;12.90;99.90;;;;;;5244656;28;20232;-77
2022/04/26 09:27:34;;;;;;;2.55;2.45;;;13.00;99.90;;;;;;5249350;28;20030;-78
2022/04/26 09:30:12;;;;;;;0.82;0.82;;;13.20;99.90;;;;;;5236060;28;20036;-78
2022/04/26 09:32:51;;;;;;;1.20;1.20;;;13.30;99.90;;;;;;5238236;28;20074;-75
2022/04/26 09:35:34;;;;;;;1.60;1.60;;;13.40;99.90;;;;;;5243066;28;20040;-75
2022/04/26 09:38:12;;;;;;;2.70;2.50;;;13.10;99.90;;;;;;5254000;28;20045;-75
2022/04/26 09:40:49;;;;;;;2.40;2.30;;;12.70;99.90;;;;;;5255240;28;20269;-76
2022/04/26 09:43:26;;;;;;;0.70;0.70;;;12.30;99.90;;;;;;5256928;28;20025;-77
2022/04/26 09:45:59;;;;;;;0.93;0.93;;;12.30;99.90;;;;;;5240486;28;20047;-76
2022/04/26 09:48:38;;;;;;;1.15;1.15;;;12.20;99.90;;;;;;5240992;28;20308;-77
2022/04/26 09:51:11;;;;;;;1.92;1.30;;;12.00;99.90;;;;;;5260964;28;20059;-79
2022/04/26 09:53:42;;;;;;;1.90;1.80;;;11.80;99.90;;;;;;5222710;28;20056;-78
2022/04/26 09:56:15;;;;;;;1.38;1.38;;;11.60;99.90;;;;;;5251055;28;20037;-77
2022/04/26 09:58:51;;;;;;;1.50;1.50;;;11.40;99.90;;;;;;5194626;28;20035;-77
2022/04/26 10:01:29;;;;;;;2.05;1.88;;;11.50;99.90;;;;;;5241560;28;20345;-78
2022/04/26 10:04:03;;;;;;;2.40;2.30;;;11.50;99.90;;;;;;5230218;28;20044;-79
2022/04/26 10:06:37;;;;;;;1.00;1.00;;;11.50;99.90;;;;;;5233311;28;20044;-77
2022/04/26 10:09:13;;;;;;;2.50;1.90;;;11.70;99.90;;;;;;5241469;28;20021;-76
2022/04/26 10:11:44;;;;;;;1.58;1.58;;;11.80;99.90;;;;;;5242079;28;20025;-80
2022/04/26 10:14:18;;;;;;;2.13;2.03;;;12.00;99.90;;;;;;5243315;28;20008;-80
2022/04/26 10:16:53;;;;;;;1.63;1.63;;;12.10;99.90;;;;;;5244553;28;20035;-78
2022/04/26 10:19:43;;;;;;;2.45;2.30;;;12.10;99.90;;;;;;5243858;28;20028;-79
2022/04/26 10:22:17;;;;;;;2.00;1.90;;;12.00;99.90;;;;;;5223812;28;20041;-78
2022/04/26 10:25:17;;;;;;;3.15;2.28;;;12.00;99.90;;;;;;5249996;28;20055;-79
2022/04/26 10:28:28;;;;;;;1.95;1.85;;;12.20;99.90;;;;;;5168212;28;20310;-75
2022/04/26 10:31:10;;;;;;;1.63;1.52;;;12.20;99.90;;;;;;5167753;28;20045;-78
2022/04/26 10:33:42;;;;;;;1.80;1.70;;;12.20;99.90;;;;;;5178292;28;20029;-77
2022/04/26 10:36:31;;;;;;;0.82;0.82;;;11.80;99.90;;;;;;5167418;28;20050;-77
2022/04/26 10:39:23;;;;;;;1.42;1.42;;;11.80;99.90;;;;;;5158777;28;20540;-78
2022/04/26 10:41:54;;;;;;;6.63;2.55;;;11.70;99.90;;;;;;5159392;28;20033;-77
2022/04/26 10:44:32;;;;;;;1.63;1.52;;;11.60;99.90;;;;;;5158917;28;20042;-77
2022/04/26 10:47:09;;;;;;;1.30;1.30;;;11.50;99.90;;;;;;5138771;28;20312;-77
2022/04/26 10:49:43;;;;;;;1.58;1.48;;;11.50;99.90;;;;;;5135834;28;20065;-78
2022/04/26 10:52:26;;;;;;;1.20;1.20;;;11.30;99.90;;;;;;5157939;28;20042;-77
2022/04/26 10:55:05;;;;;;;1.63;1.52;;;11.40;99.90;;;;;;5158440;28;20075;-76
2022/04/26 10:57:41;;;;;;;1.30;1.30;;;11.70;99.90;;;;;;5158264;28;20230;-76
2022/04/26 11:00:34;;;;;;;1.33;1.30;;;12.20;99.90;;;;;;5158795;28;20034;-77
2022/04/26 11:03:08;;;;;;;1.77;1.73;;;12.40;99.90;;;;;;5161573;28;20040;-78
2022/04/26 11:05:41;;;;;;;;;;;12.20;99.90;;;;;;5231220;28;20041;-78
2022/04/26 11:08:18;;;;;;;2.22;2.15;;;12.30;99.90;;;;;;5236775;28;19912;-76
2022/04/26 11:11:01;;;;;;;2.55;2.45;;;12.50;99.90;;;;;;5243797;28;20232;-77
2022/04/26 11:13:37;;;;;;;0.80;0.80;;;12.80;99.90;;;;;;5243358;28;20032;-76
2022/04/26 11:16:12;;;;;;;0.80;0.80;;;13.00;99.90;;;;;;5241915;28;20126;-77
2022/04/26 11:18:46;;;;;;;1.23;1.23;;;13.20;99.90;;;;;;5243539;28;20246;-74
2022/04/26 11:21:17;;;;;;;2.17;2.07;;;13.20;99.90;;;;;;5245539;28;20246;-77
2022/04/26 11:29:43;;;;;;;2.42;2.28;;;13.60;99.90;;;;;;5248439;28;20038;-76
2022/04/26 11:32:31;;;;;;;2.13;1.92;;;13.70;99.90;;;;;;5246243;28;20032;-76
2022/04/26 11:35:06;;;;;;;1.90;1.80;;;13.80;99.90;;;;;;5246255;28;20056;-79
2022/04/26 11:37:53;;;;;;;1.63;1.63;;;14.10;99.90;;;;;;5243460;28;20237;-79
2022/04/26 11:40:28;;;;;;;2.03;1.92;;;14.60;99.90;;;;;;5224840;28;20028;-77
2022/04/26 11:43:15;;;;;;;2.08;1.98;;;15.20;99.90;;;;;;5206562;28;20331;-76
2022/04/26 11:45:57;;;;;;;1.58;1.58;;;15.70;99.90;;;;;;5243433;28;20021;-78
2022/04/26 11:48:37;;;;;;;0.80;0.80;;;16.00;99.90;;;;;;5223197;28;20056;-78
2022/04/26 11:51:09;;;;;;;3.05;2.85;;;16.10;99.90;;;;;;5239085;28;20044;-77
2022/04/26 11:53:44;;;;;;;1.40;1.40;;;16.50;99.90;;;;;;5245533;28;20107;-77
2022/04/26 11:56:17;;;;;;;1.77;1.67;;;17.50;99.90;;;;;;5239222;28;20268;-78
2022/04/26 11:58:51;;;;;;;0.93;0.93;;;18.50;99.90;;;;;;5224245;28;20309;-77
2022/04/26 12:01:22;;;;;;;2.17;2.08;;;19.60;99.90;;;;;;5254791;28;20024;-78
2022/04/26 12:03:54;;;;;;;1.20;1.20;;;20.40;99.90;;;;;;5227981;28;20044;-79
2022/04/26 12:06:35;;;;;;;3.78;2.22;;;21.20;99.90;;;;;;5219943;28;20052;-77
2022/04/26 12:09:15;;;;;;;2.05;1.90;;;22.80;99.90;;;;;;5222586;28;20031;-77
2022/04/26 12:12:03;;;;;;;0.98;0.98;;;24.20;99.90;;;;;;5223562;28;20428;-78
2022/04/26 12:14:37;;;;;;;2.08;1.88;;;24.50;99.90;;;;;;5222135;28;20258;-78
2022/04/26 12:17:29;;;;;;;0.65;0.65;;;23.70;99.90;;;;;;5243667;28;20345;-78
2022/04/26 12:20:09;;;;;;;0.60;0.60;;;24.50;99.90;;;;;;5259480;28;20012;-78
2022/04/26 12:22:43;;;;;;;1.52;1.42;;;25.50;99.90;;;;;;5245078;28;20020;-76
2022/04/26 12:25:15;;;;;;;1.53;1.43;;;24.90;99.90;;;;;;5223779;28;20032;-78
2022/04/26 12:28:01;;;;;;;0.65;0.65;;;24.90;99.90;;;;;;5226025;28;20020;-78
2022/04/26 12:30:34;;;;;;;1.00;1.00;;;24.90;99.90;;;;;;5242052;28;20363;-78
2022/04/26 12:33:09;;;;;;;4.18;1.75;;;24.20;99.90;;;;;;5236907;28;20043;-80
2022/04/26 12:35:59;;;;;;;0.98;0.93;;;21.50;99.90;;;;;;5243994;28;20344;-78
2022/04/26 12:38:43;;;;;;;1.27;1.27;;;19.70;99.90;;;;;;5236630;28;20043;-79
2022/04/26 12:41:15;;;;;;;;;;;20.30;99.90;;;;;;5241652;28;20042;-78
2022/04/26 12:44:03;;;;;;;1.58;1.48;;;20.00;99.90;;;;;;5222493;28;19919;-77
2022/04/26 12:53:02;;;;;;;1.50;1.48;;;20.20;99.90;;;;;;5227644;28;20039;-78
2022/04/26 12:55:44;;;;;;;2.63;2.45;;;20.30;99.90;;;;;;5222783;28;20214;-77
2022/04/26 12:58:17;;;;;;;1.83;1.67;;;20.30;99.90;;;;;;5226620;28;20415;-77
2022/04/26 13:00:52;;;;;;;2.22;2.10;;;20.50;99.90;;;;;;5231560;28;20055;-78
2022/04/26 13:03:24;;;;;;;2.47;2.00;;;21.80;99.90;;;;;;5229392;28;20036;-78
2022/04/26 13:06:09;;;;;;;1.08;1.08;;;23.10;99.90;;;;;;5202140;28;20040;-79
2022/04/26 13:08:42;;;;;;;1.42;1.42;;;24.10;99.90;;;;;;5243724;28;20210;-76
2022/04/26 13:11:18;;;;;;;0.98;0.98;;;24.00;99.90;;;;;;5216524;28;20034;-79
2022/04/26 13:13:52;;;;;;;1.63;1.52;;;22.80;99.90;;;;;;5229900;28;20384;-78
2022/04/26 13:16:26;;;;;;;0.80;0.80;;;24.30;99.90;;;;;;5237706;28;20043;-80
2022/04/26 13:18:59;;;;;;;1.25;1.25;;;25.70;99.90;;;;;;5242676;28;20024;-79
2022/04/26 13:21:30;;;;;;;1.73;0.98;;;25.90;99.90;;;;;;5223875;28;20024;-79
2022/04/26 13:24:02;;;;;;;1.05;1.05;;;25.80;99.90;;;;;;5243823;28;20504;-77
2022/04/26 13:26:37;;;;;;;1.20;1.20;;;23.70;99.90;;;;;;5237483;28;20469;-76
2022/04/26 13:29:10;;;;;;;0.85;0.85;;;23.00;99.90;;;;;;5233548;28;20310;-76
2022/04/26 13:31:42;;;;;;;1.63;1.55;;;22.80;99.90;;;;;;5216496;28;20025;-77
2022/04/26 13:34:13;;;;;;;0.32;0.32;;;23.40;99.90;;;;;;5218751;28;20081;-79
2022/04/26 13:36:47;;;;;;;1.35;1.25;;;23.20;99.90;;;;;;5245094;28;20031;-78
2022/04/26 13:39:21;;;;;;;0.57;0.57;;;22.10;99.90;;;;;;5234967;28;20037;-79
2022/04/26 13:41:53;;;;;;;1.67;1.57;;;21.10;99.90;;;;;;5244202;28;20263;-76
2022/04/26 13:44:24;;;;;;;4.57;3.20;;;20.40;99.90;;;;;;5242546;28;20273;-78
2022/04/26 13:46:57;;;;;;;0.65;0.65;;;20.70;99.90;;;;;;5243521;28;20340;-77
2022/04/26 13:49:31;;;;;;;1.35;1.25;;;22.50;99.90;;;;;;5245656;28;20952;-79
2022/04/26 13:52:03;;;;;;;2.28;2.17;;;24.20;99.90;;;;;;5234689;28;20040;-79
2022/04/26 13:54:39;;;;;;;0.57;0.57;;;24.60;99.90;;;;;;5240234;28;20028;-79
2022/04/26 13:57:11;;;;;;;0.75;0.75;;;25.40;99.90;;;;;;5232924;28;20035;-80
2022/04/26 13:59:49;;;;;;;1.45;1.40;;;25.90;99.90;;;;;;5220412;28;20033;-80
2022/04/26 14:02:22;;;;;;;0.93;0.93;;;25.10;99.90;;;;;;5240444;28;20348;-76
2022/04/26 14:04:56;;;;;;;0.80;0.80;;;23.50;99.90;;;;;;5224256;28;20048;-76
2022/04/26 14:07:29;;;;;;;0.97;0.97;;;23.50;99.90;;;;;;5230666;28;20031;-80
2022/04/26 14:10:04;;;;;;;0.65;0.65;;;23.50;99.90;;;;;;5221458;28;20028;-79
2022/04/26 14:12:38;;;;;;;0.47;0.47;;;25.00;99.90;;;;;;5232338;28;20036;-76
2022/04/26 14:23:48;;;;;;;2.10;1.90;;;27.10;99.90;;;;;;5230232;28;20050;-79
2022/04/26 14:26:20;;;;;;;0.68;0.68;;;27.50;99.90;;;;;;5217923;28;20025;-77
2022/04/26 14:28:51;;;;;;;1.48;1.38;;;25.60;99.90;;;;;;5232124;28;20021;-76
2022/04/26 14:31:24;;;;;;;1.13;0.80;;;23.90;99.90;;;;;;5224107;28;20029;-76
2022/04/26 14:33:55;;;;;;;1.60;1.50;;;23.00;99.90;;;;;;5225862;28;20033;-77
2022/04/26 14:36:29;;;;;;;0.82;0.82;;;24.30;99.90;;;;;;5244344;28;20020;-79
2022/04/26 14:39:00;;;;;;;1.10;1.10;;;25.30;99.90;;;;;;5227456;28;20033;-79
2022/04/26 14:41:32;;;;;;;1.38;1.27;;;25.50;99.90;;;;;;5229458;28;20520;-78
2022/04/26 14:44:06;;;;;;;0.65;0.65;;;25.80;99.90;;;;;;5248369;28;20024;-79
2022/04/26 14:46:40;;;;;;;0.47;0.47;;;24.00;99.90;;;;;;5242752;28;20028;-78
2022/04/26 14:49:14;;;;;;;0.98;0.98;;;23.60;99.90;;;;;;5246487;28;20052;-79
2022/04/26 14:51:46;;;;;;;1.08;1.08;;;23.50;99.90;;;;;;5227590;28;20044;-78
2022/04/26 14:54:20;;;;;;;1.63;1.52;;;25.00;99.90;;;;;;5219932;28;20084;-78
2022/04/26 14:56:52;;;;;;;1.85;1.75;;;23.90;99.90;;;;;;5244466;28;20047;-79
2022/04/26 14:59:26;;;;;;;0.90;0.90;;;23.00;99.90;;;;;;5245400;28;20032;-79
2022/04/26 15:01:59;;;;;;;1.42;1.40;;;22.20;99.90;;;;;;5246437;28;20529;-79
2022/04/26 15:04:33;;;;;;;0.80;0.80;;;21.40;99.90;;;;;;5208408;28;20083;-78
2022/04/26 15:07:09;;;;;;;0.98;0.98;;;22.00;99.90;;;;;;5232779;28;20029;-79
2022/04/26 15:09:44;;;;;;;1.02;1.00;;;20.80;99.90;;;;;;5226405;28;20047;-78
2022/04/26 15:18:00;;;;;;;1.65;1.55;;;19.20;99.90;;;;;;5228683;28;20040;-79
2022/04/26 15:20:32;;;;;;;1.35;1.35;;;18.30;99.90;;;;;;5229286;28;20036;-78
2022/04/26 15:23:04;;;;;;;1.00;1.00;;;18.20;99.90;;;;;;5229275;28;20028;-78
2022/04/26 15:25:39;;;;;;;1.58;1.48;;;17.50;99.90;;;;;;5244106;28;20024;-79
2022/04/26 15:28:16;;;;;;;2.15;2.05;;;17.30;99.90;;;;;;5229175;28;20483;-80
2022/04/26 15:30:48;;;;;;;1.13;1.13;;;17.10;99.90;;;;;;5247464;28;20552;-78
2022/04/26 15:33:21;;;;;;;1.48;1.42;;;17.20;99.90;;;;;;5244109;28;20020;-77
2022/04/26 15:35:52;;;;;;;0.98;0.95;;;17.30;99.90;;;;;;5231351;28;20360;-77
2022/04/26 15:38:27;;;;;;;0.60;0.60;;;17.60;99.90;;;;;;5231510;28;20051;-80
2022/04/26 15:41:06;;;;;;;1.00;1.00;;;17.50;99.90;;;;;;5235724;28;20212;-78
2022/04/26 15:43:39;;;;;;;1.30;1.20;;;17.50;99.90;;;;;;5252045;28;20039;-79
2022/04/26 15:46:10;;;;;;;0.80;0.80;;;18.00;99.90;;;;;;5244803;28;20021;-76
2022/04/26 15:48:53;;;;;;;2.50;1.30;;;18.40;99.90;;;;;;5231193;28;20021;-78
2022/04/26 15:51:26;;;;;;;2.17;2.05;;;19.10;99.90;;;;;;5212404;28;20036;-79
2022/04/26 15:54:02;;;;;;;1.97;1.87;;;19.50;99.90;;;;;;5245939;28;20081;-80
2022/04/26 15:56:36;;;;;;;1.08;1.08;;;19.20;99.90;;;;;;5246418;28;20267;-80
2022/04/26 15:59:13;;;;;;;0.80;0.80;;;18.90;99.90;;;;;;5228600;28;20653;-80
2022/04/26 16:01:45;;;;;;;1.50;1.35;;;18.00;99.90;;;;;;5246551;28;20035;-78
2022/04/26 16:04:19;;;;;;;1.30;1.30;;;17.30;99.90;;;;;;5235770;28;20041;-78
2022/04/26 16:06:53;;;;;;;0.60;0.60;;;17.20;99.90;;;;;;5216162;28;20226;-79
2022/04/26 16:20:50;;;;;;;1.15;1.15;;;17.00;99.90;;;;;;5246445;28;20024;-80
2022/04/26 16:23:24;;;;;;;1.13;1.13;;;16.60;99.90;;;;;;5229050;28;20087;-77
2022/04/26 16:26:02;;;;;;;0.90;0.90;;;16.30;99.90;;;;;;5241132;28;20028;-75
2022/04/26 16:28:37;;;;;;;0.80;0.80;;;16.00;99.90;;;;;;5243314;28;20260;-78
2022/04/26 16:31:09;;;;;;;1.60;1.58;;;15.90;99.90;;;;;;5212355;28;20036;-79
2022/04/26 16:33:40;;;;;;;0.55;0.55;;;15.90;99.90;;;;;;5246828;28;20039;-76
2022/04/26 16:36:11;;;;;;;1.42;1.42;;;15.60;99.90;;;;;;5246504;28;20027;-78
2022/04/26 16:38:42;;;;;;;0.98;0.98;;;15.40;99.90;;;;;;5247099;28;20041;-77
2022/04/26 16:41:14;;;;;;;0.93;0.93;;;15.20;99.90;;;;;;5266878;28;20024;-78
2022/04/26 16:43:50;;;;;;;1.10;1.10;;;15.20;99.90;;;;;;5265479;28;20028;-78
2022/04/26 16:46:25;;;;;;;1.05;1.05;;;15.20;99.90;;;;;;5247569;28;20028;-79
2022/04/26 16:49:02;;;;;;;0.90;0.90;;;15.20;99.90;;;;;;5244745;28;20039;-78
2022/04/26 16:51:36;;;;;;;1.25;1.23;;;15.10;99.90;;;;;;5243935;28;20020;-78
2022/04/26 16:54:08;;;;;;;;;;;15.00;99.90;;;;;;5222630;28;20666;-77
2022/04/26 16:56:41;;;;;;;1.40;1.30;;;14.90;99.90;;;;;;5242560;28;19916;-79
2022/04/26 16:59:14;;;;;;;1.13;1.13;;;14.80;99.90;;;;;;5238325;28;20037;-78
2022/04/26 17:01:48;;;;;;;1.85;1.75;;;14.70;99.90;;;;;;5240899;28;20012;-79
2022/04/26 17:04:22;;;;;;;1.23;1.23;;;14.70;99.90;;;;;;5213616;28;20028;-75
2022/04/26 17:06:58;;;;;;;1.00;1.00;;;14.70;99.90;;;;;;5241206;28;20054;-77
2022/04/26 17:09:30;;;;;;;1.17;1.17;;;14.70;99.90;;;;;;5250020;28;20036;-78
2022/04/26 17:12:08;;;;;;;0.60;0.60;;;14.70;99.90;;;;;;5230248;28;20037;-78
2022/04/26 17:14:39;;;;;;;1.67;1.58;;;14.70;99.90;;;;;;5248470;28;20017;-79
2022/04/26 17:17:13;;;;;;;0.85;0.85;;;14.70;99.90;;;;;;5252294;28;20034;-78
2022/04/26 17:19:48;;;;;;;1.08;1.08;;;14.70;99.90;;;;;;5213133;28;20035;-78
2022/04/26 17:22:22;;;;;;;1.15;1.15;;;14.70;99.90;;;;;;5248998;28;20028;-79
2022/04/26 17:25:17;;;;;;;;;;;14.60;99.90;;;;;;5241167;28;20043;-78
2022/04/26 17:27:49;;;;;;;0.73;0.73;;;14.50;99.90;;;;;;5242154;28;19924;-78
2022/04/26 17:30:22;;;;;;;1.20;1.20;;;14.40;99.90;;;;;;5246045;28;20024;-80
2022/04/26 17:32:56;;;;;;;0.90;0.90;;;14.30;99.90;;;;;;5243711;28;20025;-79
2022/04/26 17:35:31;;;;;;;0.93;0.93;;;14.20;99.90;;;;;;5242776;28;20029;-78
2022/04/26 17:38:02;;;;;;;1.25;1.25;;;14.20;99.90;;;;;;5242303;28;20451;-79
2022/04/26 17:40:36;;;;;;;0.75;0.75;;;14.10;99.90;;;;;;5231284;28;20017;-78
2022/04/26 17:43:10;;;;;;;1.38;1.30;;;14.00;99.90;;;;;;5248647;28;20066;-79
2022/04/26 17:45:46;;;;;;;0.82;0.82;;;14.00;99.90;;;;;;5219840;28;20028;-78
2022/04/26 17:48:18;;;;;;;0.95;0.95;;;13.90;99.90;;;;;;5241646;28;20032;-77
2022/04/26 17:50:49;;;;;;;0.95;0.95;;;13.80;99.90;;;;;;5227710;28;20041;-77
2022/04/26 17:56:28;;;;;;;1.00;1.00;;;13.80;99.90;;;;;;5237304;28;20027;-79
2022/04/26 17:59:09;;;;;;;0.98;0.98;;;13.70;99.90;;;;;;5227818;28;20040;-78
2022/04/26 18:01:40;;;;;;;0.82;0.82;;;13.70;99.90;;;;;;5214650;28;20338;-77